createdAt,value
2019-03-04T00:02:10.935Z,96551.70
2019-03-04T00:04:37.868Z,96545.03
2019-03-04T00:07:04.827Z,96558.36
2019-03-04T00:09:31.787Z,96556.82
2019-03-04T00:11:58.741Z,96552.27
2019-03-04T00:14:25.749Z,96545.05
2019-03-04T00:16:52.699Z,96533.70
2019-03-04T00:19:19.647Z,96543.27
2019-03-04T00:21:46.581Z,96535.34
2019-03-04T00:24:13.552Z,96548.43
2019-03-04T00:26:40.950Z,96548.08
2019-03-04T00:29:08.370Z,96538.97
2019-03-04T00:31:35.802Z,96544.68
2019-03-04T00:34:03.263Z,96528.57
2019-03-04T00:36:30.725Z,96539.56
2019-03-04T00:38:58.223Z,96515.45
2019-03-04T00:41:25.646Z,96520.36
2019-03-04T00:43:53.058Z,96512.71
2019-03-04T00:46:21.310Z,96511.89
2019-03-04T00:48:48.735Z,96515.11
2019-03-04T00:51:16.143Z,96509.72
2019-03-04T00:53:43.585Z,96509.45
2019-03-04T00:56:10.971Z,96504.92
2019-03-04T00:58:38.392Z,96498.62
2019-03-04T01:01:05.803Z,96490.41
2019-03-04T01:03:33.208Z,96494.47
2019-03-04T01:06:00.591Z,96488.97
2019-03-04T01:08:28.023Z,96473.93
2019-03-04T01:10:55.438Z,96464.86
2019-03-04T01:13:22.847Z,96452.30
2019-03-04T01:15:50.247Z,96438.99
2019-03-04T01:18:17.648Z,96447.66
2019-03-04T01:20:45.118Z,96437.50
2019-03-04T01:23:12.525Z,96440.46
2019-03-04T01:25:39.959Z,96434.91
2019-03-04T01:28:07.577Z,96435.63
2019-03-04T01:30:34.985Z,96421.25
2019-03-04T01:33:02.390Z,96415.21
2019-03-04T01:35:29.801Z,96417.84
2019-03-04T01:37:57.188Z,96405.72
2019-03-04T01:40:24.596Z,96400.39
2019-03-04T01:42:52.023Z,96395.48
2019-03-04T01:45:19.440Z,96390.72
2019-03-04T01:47:46.830Z,96374.58
2019-03-04T01:50:17.771Z,96363.88
2019-03-04T01:52:45.175Z,96359.38
2019-03-04T01:55:12.714Z,96361.03
2019-03-04T01:57:40.115Z,96364.06
2019-03-04T02:00:07.525Z,96344.44
2019-03-04T02:02:34.956Z,96338.66
2019-03-04T02:05:02.388Z,96323.05
2019-03-04T02:07:30.576Z,96320.13
2019-03-04T02:09:57.982Z,96320.55
2019-03-04T02:12:25.390Z,96300.80
2019-03-04T02:14:52.814Z,96303.84
2019-03-04T02:17:20.206Z,96300.66
2019-03-04T02:19:47.658Z,96288.08
2019-03-04T02:22:15.068Z,96276.30
2019-03-04T02:24:42.519Z,96259.91
2019-03-04T02:27:09.921Z,96261.89
2019-03-04T02:29:37.329Z,96263.28
2019-03-04T02:32:04.728Z,96255.25
2019-03-04T02:34:32.142Z,96252.97
2019-03-04T02:36:59.566Z,96236.50
2019-03-04T02:39:27.017Z,96245.47
2019-03-04T02:41:54.425Z,96245.62
2019-03-04T02:44:21.840Z,96248.24
2019-03-04T02:46:49.289Z,96239.73
2019-03-04T02:49:16.752Z,96250.00
2019-03-04T02:51:44.178Z,96238.41
2019-03-04T02:54:11.599Z,96226.21
2019-03-04T02:56:39.021Z,96201.70
2019-03-04T02:59:06.416Z,96197.77
2019-03-04T03:01:33.823Z,96190.83
2019-03-04T03:04:01.207Z,96173.69
2019-03-04T03:06:28.734Z,96158.67
2019-03-04T03:08:56.376Z,96144.11
2019-03-04T03:11:23.770Z,96117.59
2019-03-04T03:13:51.161Z,96123.48
2019-03-04T03:16:18.558Z,96123.58
2019-03-04T03:18:45.971Z,96117.34
2019-03-04T03:21:13.389Z,96127.70
2019-03-04T03:23:40.781Z,96113.63
2019-03-04T03:26:07.812Z,96116.13
2019-03-04T03:28:35.326Z,96120.41
2019-03-04T03:31:02.286Z,96121.84
2019-03-04T03:33:29.248Z,96124.27
2019-03-04T03:35:56.248Z,96108.80
2019-03-04T03:38:23.165Z,96104.06
2019-03-04T03:40:50.183Z,96084.46
2019-03-04T03:43:17.614Z,96091.52
2019-03-04T03:45:45.090Z,96078.66
2019-03-04T03:48:12.895Z,96084.52
2019-03-04T03:50:40.297Z,96093.41
2019-03-04T03:53:07.762Z,96078.04
2019-03-04T03:55:35.947Z,96076.30
2019-03-04T03:58:03.376Z,96078.67
2019-03-04T04:00:30.778Z,96068.76
2019-03-04T04:02:57.733Z,96047.16
2019-03-04T04:05:25.050Z,96049.21
2019-03-04T04:07:51.995Z,96038.22
2019-03-04T04:10:18.989Z,96007.67
2019-03-04T04:12:46.009Z,95994.02
2019-03-04T04:15:13.001Z,96011.77
2019-03-04T04:17:40.090Z,96032.65
2019-03-04T04:20:07.076Z,96041.58
2019-03-04T04:22:34.027Z,96045.45
2019-03-04T04:25:00.965Z,96047.13
2019-03-04T04:27:27.902Z,96053.77
2019-03-04T04:29:54.882Z,96078.72
2019-03-04T04:32:21.959Z,96071.64
2019-03-04T04:34:48.921Z,96065.40
2019-03-04T04:37:15.884Z,96066.81
2019-03-04T04:39:43.031Z,96066.67
2019-03-04T04:42:13.772Z,96074.13
2019-03-04T04:44:40.695Z,96072.53
2019-03-04T04:47:07.690Z,96083.13
2019-03-04T04:49:34.691Z,96080.29
2019-03-04T04:52:01.665Z,96077.66
2019-03-04T04:54:28.598Z,96101.72
2019-03-04T04:56:55.550Z,96097.62
2019-03-04T04:59:22.561Z,96098.39
2019-03-04T05:01:49.508Z,96111.81
2019-03-04T05:04:16.475Z,96119.86
2019-03-04T05:06:43.449Z,96114.59
2019-03-04T05:09:10.444Z,96118.80
2019-03-04T05:11:37.478Z,96127.10
2019-03-04T05:14:04.401Z,96106.87
2019-03-04T05:16:31.377Z,96107.98
2019-03-04T05:18:58.500Z,96107.16
2019-03-04T05:21:25.447Z,96110.36
2019-03-04T05:23:52.400Z,96089.77
2019-03-04T05:26:19.386Z,96097.53
2019-03-04T05:28:46.387Z,96079.04
2019-03-04T05:31:13.382Z,96076.53
2019-03-04T05:33:40.323Z,96074.48
2019-03-04T05:36:07.325Z,96075.58
2019-03-04T05:38:34.453Z,96078.55
2019-03-04T05:41:01.413Z,96079.25
2019-03-04T05:43:28.374Z,96069.34
2019-03-04T05:45:55.376Z,96067.28
2019-03-04T05:48:22.357Z,96079.12
2019-03-04T05:50:49.344Z,96084.02
2019-03-04T05:53:16.272Z,96074.98
2019-03-04T05:55:43.212Z,96070.91
2019-03-04T05:58:10.222Z,96070.66
2019-03-04T06:00:37.306Z,96077.24
2019-03-04T06:03:04.311Z,96082.45
2019-03-04T06:05:31.254Z,96084.59
2019-03-04T06:07:59.150Z,96092.98
2019-03-04T06:10:26.150Z,96101.77
2019-03-04T06:12:53.106Z,96107.23
2019-03-04T06:15:20.075Z,96103.38
2019-03-04T06:17:47.075Z,96103.78
2019-03-04T06:20:14.635Z,96099.22
2019-03-04T06:22:41.656Z,96094.22
2019-03-04T06:25:09.488Z,96092.08
2019-03-04T06:27:36.479Z,96097.00
2019-03-04T06:30:03.467Z,96112.38
2019-03-04T06:32:30.414Z,96123.64
2019-03-04T06:34:57.379Z,96132.52
2019-03-04T06:37:24.449Z,96117.84
2019-03-04T06:39:51.405Z,96124.67
2019-03-04T06:42:18.378Z,96134.78
2019-03-04T06:44:45.333Z,96135.89
2019-03-04T06:47:12.276Z,96139.02
2019-03-04T06:49:39.219Z,96140.41
2019-03-04T06:52:06.213Z,96144.89
2019-03-04T06:54:35.240Z,96148.55
2019-03-04T06:57:02.178Z,96138.44
2019-03-04T06:59:30.928Z,96148.55
2019-03-04T07:01:57.873Z,96155.49
2019-03-04T07:04:26.500Z,96162.32
2019-03-04T07:06:53.447Z,96168.48
2019-03-04T07:09:21.265Z,96183.03
2019-03-04T07:11:48.191Z,96192.12
2019-03-04T07:14:16.290Z,96197.37
2019-03-04T07:16:43.409Z,96190.52
2019-03-04T07:19:10.432Z,96215.73
2019-03-04T07:21:37.396Z,96217.25
2019-03-04T07:24:04.326Z,96212.36
2019-03-04T07:26:31.339Z,96209.73
2019-03-04T07:28:58.441Z,96218.86
2019-03-04T07:31:25.410Z,96218.24
2019-03-04T07:33:52.436Z,96215.45
2019-03-04T07:36:19.379Z,96223.92
2019-03-04T07:38:50.131Z,96218.45
2019-03-04T07:41:17.240Z,96239.59
2019-03-04T07:43:44.220Z,96248.20
2019-03-04T07:46:11.172Z,96260.58
2019-03-04T07:48:38.111Z,96289.92
2019-03-04T07:51:20.173Z,96318.99
2019-03-04T07:53:47.219Z,96335.84
2019-03-04T07:56:14.207Z,96332.91
2019-03-04T07:58:41.283Z,96342.64
2019-03-04T08:01:08.291Z,96357.24
2019-03-04T08:03:35.277Z,96348.69
2019-03-04T08:06:02.281Z,96369.59
2019-03-04T08:08:29.477Z,96375.34
2019-03-04T08:10:57.896Z,96360.02
2019-03-04T08:13:26.733Z,96377.38
2019-03-04T08:15:53.702Z,96369.56
2019-03-04T08:18:20.672Z,96369.95
2019-03-04T08:20:47.790Z,96359.84
2019-03-04T08:23:14.843Z,96366.49
2019-03-04T08:25:41.848Z,96361.14
2019-03-04T08:28:08.927Z,96367.75
2019-03-04T08:30:35.871Z,96392.44
2019-03-04T08:33:02.847Z,96405.41
2019-03-04T08:35:29.792Z,96409.92
2019-03-04T08:37:56.735Z,96414.13
2019-03-04T08:40:23.680Z,96410.64
2019-03-04T08:42:50.744Z,96415.64
2019-03-04T08:45:17.800Z,96417.75
2019-03-04T08:47:44.817Z,96428.72
2019-03-04T08:50:11.753Z,96430.83
2019-03-04T08:52:38.733Z,96427.93
2019-03-04T08:55:05.804Z,96426.87
2019-03-04T08:57:32.833Z,96438.28
2019-03-04T08:59:59.802Z,96451.55
2019-03-04T09:02:26.788Z,96466.48
2019-03-04T09:04:53.845Z,96476.19
2019-03-04T09:07:20.811Z,96500.78
2019-03-04T09:09:48.207Z,96520.78
2019-03-04T09:12:15.638Z,96515.92
2019-03-04T09:14:43.044Z,96523.87
2019-03-04T09:17:10.719Z,96525.09
2019-03-04T09:19:37.979Z,96513.66
2019-03-04T09:22:05.381Z,96524.78
2019-03-04T09:24:32.840Z,96508.86
2019-03-04T09:27:00.337Z,96492.50
2019-03-04T09:29:27.745Z,96509.31
2019-03-04T09:31:55.165Z,96493.45
2019-03-04T09:34:22.559Z,96512.38
2019-03-04T09:36:50.009Z,96532.50
2019-03-04T09:39:16.958Z,96542.68
2019-03-04T09:41:44.381Z,96522.92
2019-03-04T09:44:11.914Z,96517.45
2019-03-04T09:46:39.507Z,96517.48
2019-03-04T09:49:06.927Z,96526.73
2019-03-04T09:51:34.352Z,96519.20
2019-03-04T09:54:01.777Z,96508.78
2019-03-04T09:56:29.260Z,96514.52
2019-03-04T09:58:56.671Z,96522.85
2019-03-04T10:01:25.556Z,96522.69
2019-03-04T10:06:53.706Z,96549.64
2019-03-04T10:09:31.843Z,96558.86
2019-03-04T10:15:20.462Z,96506.29
2019-03-04T10:18:08.075Z,96493.38
2019-03-04T10:20:54.248Z,96504.48
2019-03-04T10:23:23.455Z,96505.88
2019-03-04T10:25:56.676Z,96516.92
2019-03-04T10:28:39.920Z,96523.63
2019-03-04T10:31:14.971Z,96514.03
2019-03-04T10:33:58.046Z,96520.44
2019-03-04T10:36:28.151Z,96523.95
2019-03-04T10:39:10.937Z,96538.06
2019-03-04T10:41:45.983Z,96541.51
2019-03-04T10:44:14.191Z,96525.99
2019-03-04T10:46:51.226Z,96527.16
2019-03-04T10:49:18.761Z,96516.30
2019-03-04T10:51:46.161Z,96516.30
2019-03-04T10:54:13.999Z,96493.98
2019-03-04T10:56:42.451Z,96501.95
2019-03-04T10:59:08.917Z,96487.50
2019-03-04T11:01:36.448Z,96489.02
2019-03-04T11:04:04.064Z,96493.27
2019-03-04T11:06:31.531Z,96491.20
2019-03-04T11:08:59.014Z,96488.09
2019-03-04T11:11:29.770Z,96486.27
2019-03-04T11:13:53.841Z,96493.02
2019-03-04T11:16:21.248Z,96491.73
2019-03-04T11:18:48.657Z,96504.81
2019-03-04T11:21:16.215Z,96503.34
2019-03-04T11:23:43.635Z,96512.22
2019-03-04T11:26:11.107Z,96539.84
2019-03-04T11:28:38.743Z,96538.88
2019-03-04T11:31:06.195Z,96536.89
2019-03-04T11:33:33.587Z,96530.12
2019-03-04T11:36:01.027Z,96520.84
2019-03-04T11:38:39.936Z,96538.62
2019-03-04T11:41:07.371Z,96547.11
2019-03-04T11:43:35.322Z,96539.30
2019-03-04T11:46:02.943Z,96549.59
2019-03-04T11:48:30.343Z,96560.02
2019-03-04T11:50:57.757Z,96571.03
2019-03-04T11:53:25.251Z,96572.34
2019-03-04T11:55:53.526Z,96579.63
2019-03-04T11:58:20.563Z,96573.48
2019-03-04T12:03:44.321Z,96557.47
2019-03-04T12:06:11.760Z,96544.33
2019-03-04T12:08:39.242Z,96546.69
2019-03-04T12:11:06.717Z,96537.91
2019-03-04T12:13:34.195Z,96532.61
2019-03-04T12:16:01.708Z,96552.73
2019-03-04T12:18:29.174Z,96559.06
2019-03-04T12:20:56.594Z,96561.22
2019-03-04T12:23:24.043Z,96544.52
2019-03-04T12:25:51.475Z,96541.64
2019-03-04T12:28:19.091Z,96544.04
2019-03-04T12:30:46.747Z,96536.47
2019-03-04T12:33:14.142Z,96516.97
2019-03-04T12:35:41.555Z,96503.98
2019-03-04T12:38:09.087Z,96494.92
2019-03-04T12:40:36.505Z,96498.87
2019-03-04T12:43:04.427Z,96492.30
2019-03-04T12:45:34.639Z,96497.53
2019-03-04T12:47:59.360Z,96491.10
2019-03-04T12:50:27.750Z,96489.64
2019-03-04T12:52:55.141Z,96489.81
2019-03-04T12:55:22.544Z,96478.91
2019-03-04T12:57:50.065Z,96459.03
2019-03-04T13:00:23.981Z,96480.02
2019-03-04T13:02:57.468Z,96471.03
2019-03-04T13:05:19.386Z,96460.48
2019-03-04T13:07:46.844Z,96461.50
2019-03-04T13:10:14.235Z,96458.27
2019-03-04T13:12:41.652Z,96464.84
2019-03-04T13:15:12.473Z,96462.66
2019-03-04T13:17:39.868Z,96465.06
2019-03-04T13:20:07.335Z,96462.36
2019-03-04T13:22:34.722Z,96486.42
2019-03-04T13:25:02.148Z,96478.54
2019-03-04T13:27:29.550Z,96480.41
2019-03-04T13:29:57.001Z,96465.08
2019-03-04T13:32:24.405Z,96455.74
2019-03-04T13:34:51.903Z,96453.91
2019-03-04T13:37:19.536Z,96433.37
2019-03-04T13:39:46.939Z,96427.59
2019-03-04T13:42:14.339Z,96417.11
2019-03-04T13:44:42.159Z,96435.19
2019-03-04T13:47:09.624Z,96452.59
2019-03-04T13:49:37.041Z,96431.89
2019-03-04T13:52:04.466Z,96443.14
2019-03-04T13:54:31.905Z,96444.13
2019-03-04T13:56:59.314Z,96446.97
2019-03-04T13:59:26.737Z,96442.64
2019-03-04T14:01:54.138Z,96452.33
2019-03-04T14:04:21.566Z,96475.50
2019-03-04T14:06:48.975Z,96486.02
2019-03-04T14:09:16.389Z,96490.99
2019-03-04T14:11:43.831Z,96514.94
2019-03-04T14:14:11.366Z,96512.27
2019-03-04T14:16:38.785Z,96529.06
2019-03-04T14:19:06.227Z,96526.73
2019-03-04T14:21:33.654Z,96528.27
2019-03-04T14:24:01.113Z,96516.16
2019-03-04T14:26:28.571Z,96515.78
2019-03-04T14:28:55.998Z,96521.25
2019-03-04T14:31:23.406Z,96516.14
2019-03-04T14:33:50.814Z,96518.75
2019-03-04T14:36:18.281Z,96513.58
2019-03-04T14:38:45.680Z,96521.91
2019-03-04T14:41:13.077Z,96524.41
2019-03-04T14:43:40.649Z,96545.08
2019-03-04T14:46:08.086Z,96539.66
2019-03-04T14:48:35.512Z,96547.11
2019-03-04T14:51:02.904Z,96549.11
2019-03-04T14:53:30.366Z,96571.21
2019-03-04T14:55:58.590Z,96563.90
2019-03-04T14:58:26.028Z,96569.42
2019-03-04T15:00:53.435Z,96566.44
2019-03-04T15:03:23.636Z,96566.94
2019-03-04T15:05:48.309Z,96573.69
2019-03-04T15:08:15.750Z,96568.10
2019-03-04T15:10:42.714Z,96569.97
2019-03-04T15:13:10.235Z,96586.67
2019-03-04T15:15:37.604Z,96595.75
2019-03-04T15:18:05.006Z,96596.31
2019-03-04T15:20:33.853Z,96606.66
2019-03-04T15:23:01.317Z,96617.52
2019-03-04T15:25:30.663Z,96630.70
2019-03-04T15:28:08.981Z,96631.34
2019-03-04T15:30:37.408Z,96631.77
2019-03-04T15:33:04.855Z,96637.14
2019-03-04T15:35:32.250Z,96633.27
2019-03-04T15:37:59.820Z,96631.98
2019-03-04T15:40:27.765Z,96620.94
2019-03-04T15:42:55.345Z,96614.38
2019-03-04T15:45:22.771Z,96625.75
2019-03-04T15:47:50.800Z,96620.89
2019-03-04T15:50:18.218Z,96633.71
2019-03-04T15:52:45.728Z,96624.02
2019-03-04T15:55:13.253Z,96626.39
2019-03-04T15:57:41.595Z,96628.80
2019-03-04T16:00:12.587Z,96617.02
2019-03-04T16:02:40.033Z,96647.07
2019-03-04T16:05:09.245Z,96631.44
2019-03-04T16:07:37.787Z,96634.95
2019-03-04T16:10:11.754Z,96642.58
2019-03-04T16:12:39.192Z,96636.70
2019-03-04T16:15:06.965Z,96613.22
2019-03-04T16:17:34.361Z,96643.40
2019-03-04T16:20:01.343Z,96634.23
2019-03-04T16:22:28.746Z,96644.88
2019-03-04T16:24:56.204Z,96641.79
2019-03-04T16:27:23.602Z,96667.02
2019-03-04T16:29:51.084Z,96656.94
2019-03-04T16:32:19.281Z,96664.03
2019-03-04T16:34:46.799Z,96665.69
2019-03-04T16:37:14.401Z,96657.74
2019-03-04T16:39:41.902Z,96641.63
2019-03-04T16:42:09.303Z,96673.31
2019-03-04T16:44:36.759Z,96677.47
2019-03-04T16:47:04.273Z,96687.08
2019-03-04T16:49:31.687Z,96696.34
2019-03-04T16:51:59.077Z,96707.11
2019-03-04T16:54:27.690Z,96699.19
2019-03-04T16:56:55.230Z,96700.31
2019-03-04T16:59:22.727Z,96696.66
2019-03-04T17:01:50.189Z,96695.03
2019-03-04T17:04:17.603Z,96702.02
2019-03-04T17:06:45.016Z,96707.01
2019-03-04T17:09:14.263Z,96704.22
2019-03-04T17:11:41.733Z,96709.40
2019-03-04T17:14:09.142Z,96712.49
2019-03-04T17:16:37.039Z,96717.66
2019-03-04T17:19:04.424Z,96719.62
2019-03-04T17:21:31.884Z,96717.75
2019-03-04T17:23:59.866Z,96723.09
2019-03-04T17:26:27.360Z,96716.77
2019-03-04T17:28:56.461Z,96719.16
2019-03-04T17:31:24.070Z,96720.27
2019-03-04T17:33:51.465Z,96719.28
2019-03-04T17:36:18.980Z,96717.02
2019-03-04T17:38:46.389Z,96724.87
2019-03-04T17:41:13.821Z,96732.06
2019-03-04T17:43:41.242Z,96728.39
2019-03-04T17:46:08.647Z,96732.66
2019-03-04T17:48:36.499Z,96728.14
2019-03-04T17:51:06.065Z,96741.23
2019-03-04T17:53:31.376Z,96731.45
2019-03-04T17:55:58.882Z,96745.06
2019-03-04T17:58:26.611Z,96751.42
2019-03-04T18:00:54.024Z,96756.02
2019-03-04T18:03:21.416Z,96747.66
2019-03-04T18:05:48.972Z,96746.69
2019-03-04T18:08:16.371Z,96747.69
2019-03-04T18:10:43.767Z,96754.30
2019-03-04T18:13:11.188Z,96755.30
2019-03-04T18:15:38.638Z,96770.67
2019-03-04T18:18:06.031Z,96756.98
2019-03-04T18:20:34.670Z,96767.66
2019-03-04T18:23:01.066Z,96757.66
2019-03-04T18:28:46.192Z,96763.45
2019-03-04T18:31:13.642Z,96769.27
2019-03-04T18:37:12.941Z,96767.48
2019-03-04T18:42:43.854Z,96781.09
2019-03-04T18:48:13.004Z,96773.45
2019-03-04T18:50:40.506Z,96781.24
2019-03-04T18:53:07.907Z,96792.30
2019-03-04T18:55:37.339Z,96798.61
2019-03-04T18:58:02.913Z,96802.72
2019-03-04T19:00:30.327Z,96802.11
2019-03-04T19:02:57.819Z,96810.02
2019-03-04T19:05:25.237Z,96815.95
2019-03-04T19:07:52.738Z,96814.38
2019-03-04T19:10:20.140Z,96819.25
2019-03-04T19:12:47.598Z,96837.28
2019-03-04T19:15:15.111Z,96832.17
2019-03-04T19:17:42.529Z,96838.98
2019-03-04T19:20:14.608Z,96834.31
2019-03-04T19:22:42.081Z,96835.86
2019-03-04T19:25:09.495Z,96841.72
2019-03-04T19:27:36.889Z,96841.22
2019-03-04T19:30:12.839Z,96843.98
2019-03-04T19:32:40.659Z,96857.22
2019-03-04T19:35:09.020Z,96862.95
2019-03-04T19:37:36.431Z,96860.57
2019-03-04T19:40:06.098Z,96877.27
2019-03-04T19:42:31.264Z,96880.19
2019-03-04T19:44:58.696Z,96879.73
2019-03-04T19:47:26.085Z,96881.49
2019-03-04T19:49:53.486Z,96879.23
2019-03-04T19:52:20.897Z,96878.20
2019-03-04T19:54:48.323Z,96878.67
2019-03-04T19:57:15.718Z,96875.11
2019-03-04T19:59:43.159Z,96877.37
2019-03-04T20:02:10.600Z,96879.73
2019-03-04T20:04:37.985Z,96871.92
2019-03-04T20:07:05.838Z,96884.73
2019-03-04T20:09:33.299Z,96884.79
2019-03-04T20:12:00.712Z,96891.33
2019-03-04T20:14:28.122Z,96911.45
2019-03-04T20:16:55.543Z,96916.53
2019-03-04T20:19:22.958Z,96918.34
2019-03-04T20:21:50.431Z,96921.60
2019-03-04T20:24:18.080Z,96917.32
2019-03-04T20:26:45.603Z,96925.53
2019-03-04T20:29:13.061Z,96933.70
2019-03-04T20:31:40.596Z,96938.11
2019-03-04T20:34:08.017Z,96932.45
2019-03-04T20:36:35.457Z,96932.95
2019-03-04T20:39:02.981Z,96946.14
2019-03-04T20:41:30.391Z,96950.95
2019-03-04T20:43:57.803Z,96961.28
2019-03-04T20:46:25.212Z,96951.79
2019-03-04T20:48:52.616Z,96953.23
2019-03-04T20:51:20.174Z,96960.76
2019-03-04T20:53:47.582Z,96964.04
2019-03-04T20:56:15.025Z,96966.27
2019-03-04T20:58:42.435Z,96965.43
2019-03-04T21:01:09.868Z,96961.98
2019-03-04T21:03:38.704Z,96972.48
2019-03-04T21:06:04.788Z,96978.73
2019-03-04T21:08:32.247Z,96975.41
2019-03-04T21:10:59.761Z,96974.59
2019-03-04T21:13:35.271Z,96981.55
2019-03-04T21:15:54.764Z,96980.91
2019-03-04T21:18:22.224Z,96986.45
2019-03-04T21:20:49.679Z,96978.24
2019-03-04T21:23:17.071Z,96988.98
2019-03-04T21:29:04.955Z,96976.98
2019-03-04T21:31:33.922Z,96974.81
2019-03-04T21:34:21.166Z,96974.41
2019-03-04T21:36:51.139Z,96984.45
2019-03-04T21:39:25.272Z,96994.36
2019-03-04T21:42:04.686Z,96994.97
2019-03-04T21:44:57.029Z,96994.00
2019-03-04T21:47:26.499Z,96989.82
2019-03-04T21:49:53.894Z,96990.63
2019-03-04T21:52:37.136Z,96991.24
2019-03-04T21:55:05.332Z,96994.00
2019-03-04T21:57:33.772Z,96992.99
2019-03-04T22:00:01.213Z,96989.96
2019-03-04T22:02:30.540Z,96991.52
2019-03-04T22:04:57.986Z,96996.00
2019-03-04T22:07:25.389Z,96997.87
2019-03-04T22:09:53.623Z,96999.65
2019-03-04T22:12:21.023Z,96996.61
2019-03-04T22:14:48.485Z,96986.17
2019-03-04T22:17:15.936Z,96995.67
2019-03-04T22:19:43.349Z,96994.00
2019-03-04T22:22:10.734Z,96990.44
2019-03-04T22:24:38.361Z,96996.17
2019-03-04T22:27:05.781Z,96993.25
2019-03-04T22:29:33.175Z,96986.79
2019-03-04T22:32:00.560Z,96985.28
2019-03-04T22:34:27.986Z,96981.28
2019-03-04T22:36:55.451Z,96973.91
2019-03-04T22:39:22.825Z,96976.09
2019-03-04T22:41:50.362Z,96973.61
2019-03-04T22:44:17.753Z,96969.08
2019-03-04T22:46:45.177Z,96970.67
2019-03-04T22:49:12.694Z,96964.69
2019-03-04T22:51:40.134Z,96967.08
2019-03-04T22:54:07.580Z,96963.29
2019-03-04T22:56:34.998Z,96956.50
2019-03-04T22:59:02.388Z,96955.59
2019-03-04T23:01:30.613Z,96958.56
2019-03-04T23:03:58.009Z,96956.01
2019-03-04T23:06:27.343Z,96951.61
2019-03-04T23:08:54.984Z,96951.32
2019-03-04T23:11:23.315Z,96954.69
2019-03-04T23:13:59.288Z,96951.17
2019-03-04T23:16:26.740Z,96950.84
2019-03-04T23:18:54.158Z,96951.34
2019-03-04T23:21:21.552Z,96943.69
2019-03-04T23:23:49.026Z,96938.16
2019-03-04T23:26:16.437Z,96932.38
2019-03-04T23:28:43.905Z,96926.41
2019-03-04T23:31:11.290Z,96921.78
2019-03-04T23:33:38.752Z,96927.82
2019-03-04T23:36:06.545Z,96925.28
2019-03-04T23:38:34.060Z,96916.63
2019-03-04T23:41:01.451Z,96916.53
2019-03-04T23:43:28.872Z,96905.92
2019-03-04T23:45:56.289Z,96902.14
2019-03-04T23:48:23.704Z,96900.59
2019-03-04T23:50:51.123Z,96898.48
2019-03-04T23:53:18.546Z,96896.45
2019-03-04T23:55:45.964Z,96896.50
2019-03-04T23:58:13.370Z,96896.98
